createdAt,value
2019-04-25T07:11:43.709Z,6.73
2019-04-25T07:21:44.391Z,6.70
2019-04-25T07:31:44.846Z,4.67
2019-04-25T07:41:46.130Z,3.83
2019-04-25T07:51:47.410Z,3.93
2019-04-25T08:01:48.697Z,4.03
2019-04-25T08:11:49.946Z,3.70
2019-04-25T08:21:51.201Z,4.25
2019-04-25T08:31:53.538Z,4.72
2019-04-25T08:41:54.157Z,3.87
2019-04-25T08:51:55.800Z,4.30
2019-04-25T09:01:56.401Z,3.00
2019-04-25T09:11:57.682Z,3.42
2019-04-25T10:32:49.078Z,2.22
2019-04-25T10:42:51.096Z,2.20
2019-04-25T10:52:54.329Z,1.90
2019-04-25T11:02:54.894Z,1.92
2019-04-25T11:12:56.244Z,1.98
2019-04-25T11:22:57.530Z,2.30
2019-04-25T11:32:58.820Z,2.05
2019-04-25T11:43:00.094Z,2.03
2019-04-25T11:53:03.011Z,2.33
2019-04-25T12:03:03.715Z,2.05
2019-04-25T12:13:05.552Z,2.03
2019-04-25T12:23:10.419Z,2.53
2019-04-25T12:33:18.453Z,2.58
2019-04-25T12:43:15.553Z,2.12
2019-04-25T12:53:17.571Z,1.52
2019-04-25T13:03:19.066Z,2.28
2019-04-25T13:13:20.346Z,1.85
2019-04-25T13:23:21.616Z,2.25
2019-04-25T13:33:23.568Z,2.08
2019-04-25T13:43:24.274Z,2.08
2019-04-25T13:53:25.691Z,2.20
2019-04-25T14:03:27.301Z,2.30
2019-04-25T14:13:28.261Z,1.55
2019-04-25T14:23:29.542Z,2.22
2019-04-25T14:33:31.585Z,2.20
2019-04-25T14:43:33.548Z,2.35
2019-04-25T14:53:35.174Z,2.47
2019-04-25T15:03:35.675Z,2.62
2019-04-25T15:13:37.965Z,2.92
2019-04-25T15:23:39.418Z,2.75
2019-04-25T15:33:40.680Z,2.50
2019-04-25T15:43:41.938Z,2.60
2019-04-25T15:53:43.211Z,3.40
2019-04-25T16:03:44.480Z,2.47
2019-04-25T16:13:45.737Z,3.08
2019-04-25T16:23:47.009Z,3.37
2019-04-25T16:33:49.357Z,2.83
2019-04-25T16:43:51.411Z,2.80
2019-04-25T16:53:52.694Z,3.00
2019-04-25T17:03:53.974Z,3.07
2019-04-25T17:13:56.010Z,2.93
2019-04-25T17:23:57.286Z,3.30
2019-04-25T17:33:59.375Z,3.00
2019-04-25T17:44:01.120Z,3.00
2019-04-25T17:54:01.998Z,3.03
2019-04-25T18:04:04.033Z,2.70
2019-04-25T18:14:05.321Z,2.77
2019-04-25T18:24:06.581Z,2.77
2019-04-25T18:34:07.881Z,3.40
2019-04-25T18:54:17.712Z,2.80
2019-04-25T19:04:19.155Z,3.03
2019-04-25T19:14:20.493Z,3.30
2019-04-25T19:24:21.773Z,2.93
2019-04-25T19:34:23.051Z,2.77
2019-04-25T19:44:24.298Z,2.80
2019-04-25T19:54:25.557Z,2.77
2019-04-25T20:55:04.938Z,3.77
2019-04-25T21:05:06.981Z,3.50
2019-04-25T21:15:08.266Z,3.60
2019-04-25T21:25:10.310Z,3.97
2019-04-25T21:35:11.629Z,6.73
2019-04-25T21:45:12.914Z,4.77
2019-04-25T21:55:14.170Z,4.27
2019-04-25T22:05:15.482Z,4.37
2019-04-25T22:15:16.783Z,3.63
2019-04-25T22:25:18.110Z,4.13
2019-04-25T22:35:20.230Z,4.10
2019-04-25T22:45:21.562Z,4.00
2019-04-25T22:55:22.922Z,4.23
2019-04-25T23:05:24.263Z,3.83
2019-04-25T23:15:31.552Z,4.40
2019-04-25T23:25:33.647Z,4.33
2019-04-25T23:35:34.906Z,4.07
2019-04-25T23:45:36.190Z,3.80
2019-04-25T23:55:37.449Z,4.50
